sensor_id;sensor_type;location;lat;lon;timestamp;P1;durP1;ratioP1;P2;durP2;ratioP2
44572;SDS011;31762;45.420;10.072;2022-07-29T00:04:26;1.77;;;1.42;;
44572;SDS011;31762;45.420;10.072;2022-07-29T00:09:28;1.40;;;1.17;;
44572;SDS011;31762;45.420;10.072;2022-07-29T00:14:30;1.50;;;1.08;;
44572;SDS011;31762;45.420;10.072;2022-07-29T00:19:32;1.70;;;1.20;;
44572;SDS011;31762;45.420;10.072;2022-07-29T00:24:33;2.03;;;1.42;;
44572;SDS011;31762;45.420;10.072;2022-07-29T00:29:35;1.70;;;1.10;;
44572;SDS011;31762;45.420;10.072;2022-07-29T00:34:37;1.63;;;1.15;;
44572;SDS011;31762;45.420;10.072;2022-07-29T00:39:39;3.38;;;2.13;;
44572;SDS011;31762;45.420;10.072;2022-07-29T00:44:40;3.00;;;1.70;;
44572;SDS011;31762;45.420;10.072;2022-07-29T00:49:43;2.15;;;1.63;;
44572;SDS011;31762;45.420;10.072;2022-07-29T00:54:45;1.73;;;1.52;;
44572;SDS011;31762;45.420;10.072;2022-07-29T00:59:47;2.17;;;1.30;;
44572;SDS011;31762;45.420;10.072;2022-07-29T01:04:48;2.97;;;1.67;;
44572;SDS011;31762;45.420;10.072;2022-07-29T01:09:50;2.53;;;1.30;;
44572;SDS011;31762;45.420;10.072;2022-07-29T01:14:54;2.80;;;1.50;;
44572;SDS011;31762;45.420;10.072;2022-07-29T01:30:41;2.65;;;1.38;;
44572;SDS011;31762;45.420;10.072;2022-07-29T01:35:45;1.47;;;1.10;;
44572;SDS011;31762;45.420;10.072;2022-07-29T01:40:52;1.95;;;1.50;;
44572;SDS011;31762;45.420;10.072;2022-07-29T01:46:03;1.73;;;1.10;;
44572;SDS011;31762;45.420;10.072;2022-07-29T01:51:20;2.25;;;1.40;;
44572;SDS011;31762;45.420;10.072;2022-07-29T01:56:26;2.72;;;1.23;;
44572;SDS011;31762;45.420;10.072;2022-07-29T02:01:32;3.10;;;1.90;;
44572;SDS011;31762;45.420;10.072;2022-07-29T02:06:34;2.57;;;1.90;;
44572;SDS011;31762;45.420;10.072;2022-07-29T02:11:39;5.63;;;2.47;;
44572;SDS011;31762;45.420;10.072;2022-07-29T02:16:43;4.47;;;2.73;;
44572;SDS011;31762;45.420;10.072;2022-07-29T02:21:46;6.60;;;2.83;;
44572;SDS011;31762;45.420;10.072;2022-07-29T02:26:49;6.15;;;2.90;;
44572;SDS011;31762;45.420;10.072;2022-07-29T02:31:52;4.97;;;3.10;;
44572;SDS011;31762;45.420;10.072;2022-07-29T02:36:56;7.75;;;3.83;;
44572;SDS011;31762;45.420;10.072;2022-07-29T02:42:01;5.20;;;4.68;;
44572;SDS011;31762;45.420;10.072;2022-07-29T02:47:21;6.53;;;4.95;;
44572;SDS011;31762;45.420;10.072;2022-07-29T02:52:45;6.00;;;5.40;;
44572;SDS011;31762;45.420;10.072;2022-07-29T02:58:00;8.23;;;5.93;;
44572;SDS011;31762;45.420;10.072;2022-07-29T03:03:17;6.93;;;5.60;;
44572;SDS011;31762;45.420;10.072;2022-07-29T03:08:20;7.13;;;6.00;;
44572;SDS011;31762;45.420;10.072;2022-07-29T03:13:23;7.32;;;5.82;;
44572;SDS011;31762;45.420;10.072;2022-07-29T03:18:25;8.40;;;6.37;;
44572;SDS011;31762;45.420;10.072;2022-07-29T03:23:28;8.07;;;6.20;;
44572;SDS011;31762;45.420;10.072;2022-07-29T03:28:35;9.75;;;6.47;;
44572;SDS011;31762;45.420;10.072;2022-07-29T03:33:39;8.27;;;6.50;;
44572;SDS011;31762;45.420;10.072;2022-07-29T03:38:41;7.15;;;6.40;;
44572;SDS011;31762;45.420;10.072;2022-07-29T03:43:45;8.85;;;7.05;;
44572;SDS011;31762;45.420;10.072;2022-07-29T03:48:50;7.93;;;7.05;;
44572;SDS011;31762;45.420;10.072;2022-07-29T03:53:57;7.75;;;6.95;;
44572;SDS011;31762;45.420;10.072;2022-07-29T03:58:59;8.30;;;6.90;;
44572;SDS011;31762;45.420;10.072;2022-07-29T04:04:03;8.70;;;6.20;;
44572;SDS011;31762;45.420;10.072;2022-07-29T04:09:06;8.53;;;6.40;;
44572;SDS011;31762;45.420;10.072;2022-07-29T04:14:10;8.37;;;7.43;;
44572;SDS011;31762;45.420;10.072;2022-07-29T04:19:11;9.07;;;6.85;;
44572;SDS011;31762;45.420;10.072;2022-07-29T04:24:13;8.52;;;5.95;;
44572;SDS011;31762;45.420;10.072;2022-07-29T04:29:16;8.30;;;6.83;;
44572;SDS011;31762;45.420;10.072;2022-07-29T04:34:18;7.80;;;6.03;;
44572;SDS011;31762;45.420;10.072;2022-07-29T04:39:20;7.75;;;5.85;;
44572;SDS011;31762;45.420;10.072;2022-07-29T04:44:23;7.37;;;6.03;;
44572;SDS011;31762;45.420;10.072;2022-07-29T04:49:29;8.00;;;6.60;;
44572;SDS011;31762;45.420;10.072;2022-07-29T04:54:30;7.72;;;6.10;;
44572;SDS011;31762;45.420;10.072;2022-07-29T04:59:32;7.40;;;6.07;;
44572;SDS011;31762;45.420;10.072;2022-07-29T05:04:34;8.32;;;6.28;;
44572;SDS011;31762;45.420;10.072;2022-07-29T05:09:36;8.70;;;6.22;;
44572;SDS011;31762;45.420;10.072;2022-07-29T05:14:37;8.85;;;6.47;;
44572;SDS011;31762;45.420;10.072;2022-07-29T05:19:39;7.20;;;5.77;;
44572;SDS011;31762;45.420;10.072;2022-07-29T05:24:41;8.48;;;6.88;;
44572;SDS011;31762;45.420;10.072;2022-07-29T05:29:43;7.82;;;6.15;;
44572;SDS011;31762;45.420;10.072;2022-07-29T05:34:46;9.20;;;6.35;;
44572;SDS011;31762;45.420;10.072;2022-07-29T05:39:51;6.60;;;5.90;;
44572;SDS011;31762;45.420;10.072;2022-07-29T05:44:57;8.52;;;6.53;;
44572;SDS011;31762;45.420;10.072;2022-07-29T05:49:59;5.63;;;4.78;;
44572;SDS011;31762;45.420;10.072;2022-07-29T05:55:01;4.47;;;3.45;;
44572;SDS011;31762;45.420;10.072;2022-07-29T06:00:03;5.13;;;2.42;;
44572;SDS011;31762;45.420;10.072;2022-07-29T06:05:05;4.22;;;2.50;;
44572;SDS011;31762;45.420;10.072;2022-07-29T06:10:16;3.60;;;2.33;;
44572;SDS011;31762;45.420;10.072;2022-07-29T06:15:18;3.40;;;2.10;;
44572;SDS011;31762;45.420;10.072;2022-07-29T06:20:20;4.40;;;2.30;;
44572;SDS011;31762;45.420;10.072;2022-07-29T06:25:27;3.57;;;2.37;;
44572;SDS011;31762;45.420;10.072;2022-07-29T06:30:29;2.38;;;1.90;;
44572;SDS011;31762;45.420;10.072;2022-07-29T06:35:34;3.00;;;2.00;;
44572;SDS011;31762;45.420;10.072;2022-07-29T06:40:45;3.20;;;1.70;;
44572;SDS011;31762;45.420;10.072;2022-07-29T06:45:47;1.83;;;1.57;;
44572;SDS011;31762;45.420;10.072;2022-07-29T06:50:49;2.25;;;1.60;;
44572;SDS011;31762;45.420;10.072;2022-07-29T06:55:51;2.28;;;1.83;;
44572;SDS011;31762;45.420;10.072;2022-07-29T07:00:53;1.67;;;1.27;;
44572;SDS011;31762;45.420;10.072;2022-07-29T07:05:55;2.00;;;1.60;;
44572;SDS011;31762;45.420;10.072;2022-07-29T07:10:57;2.13;;;1.10;;
44572;SDS011;31762;45.420;10.072;2022-07-29T07:15:58;2.40;;;1.63;;
44572;SDS011;31762;45.420;10.072;2022-07-29T07:21:00;1.90;;;1.05;;
44572;SDS011;31762;45.420;10.072;2022-07-29T07:26:02;2.10;;;0.93;;
44572;SDS011;31762;45.420;10.072;2022-07-29T07:31:04;1.40;;;1.00;;
44572;SDS011;31762;45.420;10.072;2022-07-29T07:36:06;2.42;;;1.50;;
44572;SDS011;31762;45.420;10.072;2022-07-29T07:41:08;2.10;;;1.38;;
44572;SDS011;31762;45.420;10.072;2022-07-29T07:46:10;1.90;;;1.23;;
44572;SDS011;31762;45.420;10.072;2022-07-29T07:51:12;2.33;;;1.93;;
44572;SDS011;31762;45.420;10.072;2022-07-29T07:56:13;2.72;;;2.30;;
44572;SDS011;31762;45.420;10.072;2022-07-29T08:01:17;2.03;;;1.77;;
44572;SDS011;31762;45.420;10.072;2022-07-29T08:06:18;3.70;;;2.70;;
44572;SDS011;31762;45.420;10.072;2022-07-29T08:11:20;3.70;;;1.95;;
44572;SDS011;31762;45.420;10.072;2022-07-29T08:16:22;3.55;;;2.60;;
44572;SDS011;31762;45.420;10.072;2022-07-29T08:21:24;2.10;;;1.67;;
44572;SDS011;31762;45.420;10.072;2022-07-29T08:26:26;2.87;;;1.83;;
44572;SDS011;31762;45.420;10.072;2022-07-29T08:31:28;2.58;;;1.90;;
44572;SDS011;31762;45.420;10.072;2022-07-29T08:36:30;1.95;;;1.48;;
44572;SDS011;31762;45.420;10.072;2022-07-29T08:41:32;1.60;;;1.40;;
44572;SDS011;31762;45.420;10.072;2022-07-29T08:46:37;2.90;;;1.30;;
44572;SDS011;31762;45.420;10.072;2022-07-29T08:51:40;2.13;;;1.80;;
44572;SDS011;31762;45.420;10.072;2022-07-29T08:56:50;1.80;;;1.60;;
44572;SDS011;31762;45.420;10.072;2022-07-29T09:01:55;2.13;;;1.65;;
44572;SDS011;31762;45.420;10.072;2022-07-29T09:07:00;2.10;;;1.63;;
44572;SDS011;31762;45.420;10.072;2022-07-29T09:12:05;5.80;;;2.80;;
44572;SDS011;31762;45.420;10.072;2022-07-29T09:17:07;2.63;;;1.85;;
44572;SDS011;31762;45.420;10.072;2022-07-29T09:22:09;9.13;;;2.67;;
44572;SDS011;31762;45.420;10.072;2022-07-29T09:32:22;2.33;;;1.63;;
44572;SDS011;31762;45.420;10.072;2022-07-29T09:37:25;1.58;;;1.25;;
44572;SDS011;31762;45.420;10.072;2022-07-29T09:42:29;2.43;;;1.83;;
44572;SDS011;31762;45.420;10.072;2022-07-29T09:47:40;1.73;;;1.38;;
44572;SDS011;31762;45.420;10.072;2022-07-29T09:52:48;3.70;;;1.60;;
44572;SDS011;31762;45.420;10.072;2022-07-29T09:57:51;2.35;;;1.90;;
44572;SDS011;31762;45.420;10.072;2022-07-29T10:02:53;4.95;;;3.25;;
44572;SDS011;31762;45.420;10.072;2022-07-29T10:08:01;3.97;;;3.58;;
44572;SDS011;31762;45.420;10.072;2022-07-29T10:13:07;2.75;;;2.45;;
44572;SDS011;31762;45.420;10.072;2022-07-29T10:18:16;3.40;;;2.78;;
44572;SDS011;31762;45.420;10.072;2022-07-29T10:23:17;4.97;;;2.87;;
44572;SDS011;31762;45.420;10.072;2022-07-29T10:28:20;2.20;;;2.00;;
44572;SDS011;31762;45.420;10.072;2022-07-29T10:33:29;3.38;;;2.47;;
44572;SDS011;31762;45.420;10.072;2022-07-29T10:43:47;4.68;;;3.03;;
44572;SDS011;31762;45.420;10.072;2022-07-29T10:54:18;4.72;;;3.55;;
44572;SDS011;31762;45.420;10.072;2022-07-29T10:59:40;4.28;;;3.50;;
44572;SDS011;31762;45.420;10.072;2022-07-29T11:10:21;5.07;;;4.03;;
44572;SDS011;31762;45.420;10.072;2022-07-29T11:15:20;4.90;;;4.20;;
44572;SDS011;31762;45.420;10.072;2022-07-29T11:20:32;5.18;;;3.70;;
44572;SDS011;31762;45.420;10.072;2022-07-29T11:25:38;4.88;;;3.92;;
44572;SDS011;31762;45.420;10.072;2022-07-29T11:30:52;5.40;;;4.57;;
44572;SDS011;31762;45.420;10.072;2022-07-29T11:36:06;6.20;;;5.60;;
44572;SDS011;31762;45.420;10.072;2022-07-29T11:41:35;6.20;;;4.97;;
44572;SDS011;31762;45.420;10.072;2022-07-29T11:46:50;4.78;;;4.28;;
44572;SDS011;31762;45.420;10.072;2022-07-29T11:51:54;6.47;;;5.33;;
44572;SDS011;31762;45.420;10.072;2022-07-29T11:56:58;5.82;;;4.60;;
44572;SDS011;31762;45.420;10.072;2022-07-29T12:02:01;4.80;;;4.05;;
44572;SDS011;31762;45.420;10.072;2022-07-29T12:07:32;6.27;;;4.97;;
44572;SDS011;31762;45.420;10.072;2022-07-29T12:12:35;4.53;;;3.95;;
44572;SDS011;31762;45.420;10.072;2022-07-29T12:17:38;5.75;;;5.05;;
44572;SDS011;31762;45.420;10.072;2022-07-29T12:22:40;6.00;;;4.93;;
44572;SDS011;31762;45.420;10.072;2022-07-29T12:27:44;5.03;;;4.50;;
44572;SDS011;31762;45.420;10.072;2022-07-29T12:32:46;5.28;;;4.20;;
44572;SDS011;31762;45.420;10.072;2022-07-29T12:37:49;4.37;;;3.97;;
44572;SDS011;31762;45.420;10.072;2022-07-29T12:43:13;6.47;;;4.45;;
44572;SDS011;31762;45.420;10.072;2022-07-29T12:48:17;6.25;;;4.50;;
44572;SDS011;31762;45.420;10.072;2022-07-29T12:53:33;3.83;;;3.40;;
44572;SDS011;31762;45.420;10.072;2022-07-29T12:58:37;5.17;;;4.20;;
44572;SDS011;31762;45.420;10.072;2022-07-29T13:03:50;6.93;;;4.30;;
44572;SDS011;31762;45.420;10.072;2022-07-29T13:14:01;3.17;;;2.60;;
44572;SDS011;31762;45.420;10.072;2022-07-29T13:19:08;3.83;;;2.92;;
44572;SDS011;31762;45.420;10.072;2022-07-29T13:24:13;5.77;;;3.60;;
44572;SDS011;31762;45.420;10.072;2022-07-29T13:29:19;4.05;;;2.83;;
44572;SDS011;31762;45.420;10.072;2022-07-29T13:34:23;6.05;;;4.22;;
44572;SDS011;31762;45.420;10.072;2022-07-29T13:39:25;4.23;;;3.20;;
44572;SDS011;31762;45.420;10.072;2022-07-29T13:44:27;4.10;;;3.53;;
44572;SDS011;31762;45.420;10.072;2022-07-29T13:49:28;4.53;;;3.78;;
44572;SDS011;31762;45.420;10.072;2022-07-29T13:54:30;6.13;;;4.20;;
44572;SDS011;31762;45.420;10.072;2022-07-29T13:59:32;3.30;;;2.63;;
44572;SDS011;31762;45.420;10.072;2022-07-29T14:04:34;3.47;;;3.17;;
44572;SDS011;31762;45.420;10.072;2022-07-29T14:09:39;4.00;;;2.75;;
44572;SDS011;31762;45.420;10.072;2022-07-29T14:14:42;5.50;;;3.88;;
44572;SDS011;31762;45.420;10.072;2022-07-29T14:19:47;4.68;;;3.58;;
44572;SDS011;31762;45.420;10.072;2022-07-29T14:24:49;5.03;;;3.95;;
44572;SDS011;31762;45.420;10.072;2022-07-29T14:29:51;4.60;;;3.60;;
44572;SDS011;31762;45.420;10.072;2022-07-29T14:34:53;6.35;;;3.90;;
44572;SDS011;31762;45.420;10.072;2022-07-29T14:39:55;5.88;;;3.40;;
44572;SDS011;31762;45.420;10.072;2022-07-29T14:44:56;5.65;;;3.45;;
44572;SDS011;31762;45.420;10.072;2022-07-29T14:49:59;4.10;;;3.70;;
44572;SDS011;31762;45.420;10.072;2022-07-29T14:55:00;5.70;;;3.33;;
44572;SDS011;31762;45.420;10.072;2022-07-29T15:00:03;3.40;;;2.90;;
44572;SDS011;31762;45.420;10.072;2022-07-29T15:05:06;4.03;;;3.57;;
44572;SDS011;31762;45.420;10.072;2022-07-29T15:10:08;4.60;;;2.63;;
44572;SDS011;31762;45.420;10.072;2022-07-29T15:15:14;4.03;;;3.57;;
44572;SDS011;31762;45.420;10.072;2022-07-29T15:20:16;5.40;;;3.80;;
44572;SDS011;31762;45.420;10.072;2022-07-29T15:25:18;5.15;;;2.47;;
44572;SDS011;31762;45.420;10.072;2022-07-29T15:30:20;5.78;;;3.22;;
44572;SDS011;31762;45.420;10.072;2022-07-29T15:35:33;3.50;;;2.60;;
44572;SDS011;31762;45.420;10.072;2022-07-29T15:40:40;3.83;;;2.50;;
44572;SDS011;31762;45.420;10.072;2022-07-29T15:45:42;2.70;;;2.20;;
44572;SDS011;31762;45.420;10.072;2022-07-29T15:50:44;2.77;;;2.10;;
44572;SDS011;31762;45.420;10.072;2022-07-29T15:55:47;5.93;;;2.53;;
44572;SDS011;31762;45.420;10.072;2022-07-29T16:00:49;2.50;;;1.87;;
44572;SDS011;31762;45.420;10.072;2022-07-29T16:05:51;1.98;;;1.50;;
44572;SDS011;31762;45.420;10.072;2022-07-29T16:10:52;2.90;;;1.80;;
44572;SDS011;31762;45.420;10.072;2022-07-29T16:15:55;3.55;;;1.88;;
44572;SDS011;31762;45.420;10.072;2022-07-29T16:21:02;2.23;;;1.03;;
44572;SDS011;31762;45.420;10.072;2022-07-29T16:26:04;2.50;;;1.40;;
44572;SDS011;31762;45.420;10.072;2022-07-29T16:31:06;2.03;;;1.10;;
44572;SDS011;31762;45.420;10.072;2022-07-29T16:36:08;1.70;;;1.10;;
44572;SDS011;31762;45.420;10.072;2022-07-29T16:41:13;2.75;;;1.15;;
44572;SDS011;31762;45.420;10.072;2022-07-29T16:46:15;1.70;;;1.00;;
44572;SDS011;31762;45.420;10.072;2022-07-29T16:51:19;1.70;;;1.17;;
44572;SDS011;31762;45.420;10.072;2022-07-29T16:56:21;3.27;;;1.40;;
44572;SDS011;31762;45.420;10.072;2022-07-29T17:01:22;1.95;;;1.40;;
44572;SDS011;31762;45.420;10.072;2022-07-29T17:06:24;1.75;;;1.30;;
44572;SDS011;31762;45.420;10.072;2022-07-29T17:11:26;2.57;;;1.40;;
44572;SDS011;31762;45.420;10.072;2022-07-29T17:16:48;3.00;;;1.60;;
44572;SDS011;31762;45.420;10.072;2022-07-29T17:22:03;2.42;;;1.50;;
44572;SDS011;31762;45.420;10.072;2022-07-29T17:27:14;3.53;;;1.45;;
44572;SDS011;31762;45.420;10.072;2022-07-29T17:32:16;1.50;;;1.25;;
44572;SDS011;31762;45.420;10.072;2022-07-29T17:37:19;3.60;;;1.43;;
44572;SDS011;31762;45.420;10.072;2022-07-29T17:42:21;2.05;;;1.50;;
44572;SDS011;31762;45.420;10.072;2022-07-29T17:47:22;2.60;;;1.10;;
44572;SDS011;31762;45.420;10.072;2022-07-29T17:52:24;2.20;;;1.27;;
44572;SDS011;31762;45.420;10.072;2022-07-29T17:57:26;2.10;;;1.20;;
44572;SDS011;31762;45.420;10.072;2022-07-29T18:02:28;1.50;;;1.40;;
44572;SDS011;31762;45.420;10.072;2022-07-29T18:07:30;2.15;;;1.40;;
44572;SDS011;31762;45.420;10.072;2022-07-29T18:12:32;2.58;;;1.23;;
44572;SDS011;31762;45.420;10.072;2022-07-29T18:17:34;2.45;;;1.20;;
44572;SDS011;31762;45.420;10.072;2022-07-29T18:22:55;6.40;;;1.77;;
44572;SDS011;31762;45.420;10.072;2022-07-29T18:27:57;2.00;;;1.40;;
44572;SDS011;31762;45.420;10.072;2022-07-29T18:33:01;1.95;;;1.23;;
44572;SDS011;31762;45.420;10.072;2022-07-29T18:38:21;1.55;;;1.08;;
44572;SDS011;31762;45.420;10.072;2022-07-29T18:43:22;1.42;;;1.23;;
44572;SDS011;31762;45.420;10.072;2022-07-29T18:48:24;1.60;;;1.10;;
44572;SDS011;31762;45.420;10.072;2022-07-29T18:53:26;2.13;;;1.17;;
44572;SDS011;31762;45.420;10.072;2022-07-29T18:58:28;1.50;;;1.30;;
44572;SDS011;31762;45.420;10.072;2022-07-29T19:03:29;2.00;;;1.53;;
44572;SDS011;31762;45.420;10.072;2022-07-29T19:08:31;2.17;;;1.42;;
44572;SDS011;31762;45.420;10.072;2022-07-29T19:13:33;3.05;;;1.50;;
44572;SDS011;31762;45.420;10.072;2022-07-29T19:18:35;2.80;;;1.60;;
44572;SDS011;31762;45.420;10.072;2022-07-29T19:23:36;3.15;;;1.85;;
44572;SDS011;31762;45.420;10.072;2022-07-29T19:28:58;3.20;;;1.73;;
44572;SDS011;31762;45.420;10.072;2022-07-29T19:34:00;4.53;;;1.30;;
44572;SDS011;31762;45.420;10.072;2022-07-29T19:39:02;2.50;;;1.30;;
44572;SDS011;31762;45.420;10.072;2022-07-29T19:44:04;2.40;;;1.45;;
44572;SDS011;31762;45.420;10.072;2022-07-29T19:49:06;2.93;;;1.30;;
44572;SDS011;31762;45.420;10.072;2022-07-29T19:54:08;2.50;;;1.40;;
44572;SDS011;31762;45.420;10.072;2022-07-29T19:59:09;2.20;;;1.27;;
44572;SDS011;31762;45.420;10.072;2022-07-29T20:04:12;2.03;;;1.43;;
44572;SDS011;31762;45.420;10.072;2022-07-29T20:09:14;1.67;;;1.23;;
44572;SDS011;31762;45.420;10.072;2022-07-29T20:14:21;1.90;;;1.67;;
44572;SDS011;31762;45.420;10.072;2022-07-29T20:19:23;1.97;;;1.37;;
44572;SDS011;31762;45.420;10.072;2022-07-29T20:24:25;1.60;;;1.30;;
44572;SDS011;31762;45.420;10.072;2022-07-29T20:29:27;2.40;;;1.25;;
44572;SDS011;31762;45.420;10.072;2022-07-29T20:34:29;2.15;;;1.42;;
44572;SDS011;31762;45.420;10.072;2022-07-29T20:39:31;1.73;;;1.10;;
44572;SDS011;31762;45.420;10.072;2022-07-29T20:44:33;1.88;;;1.58;;
44572;SDS011;31762;45.420;10.072;2022-07-29T20:49:35;1.80;;;1.55;;
44572;SDS011;31762;45.420;10.072;2022-07-29T20:54:37;2.42;;;2.03;;
44572;SDS011;31762;45.420;10.072;2022-07-29T20:59:38;1.50;;;1.23;;
44572;SDS011;31762;45.420;10.072;2022-07-29T21:04:45;1.80;;;1.50;;
44572;SDS011;31762;45.420;10.072;2022-07-29T21:09:49;1.77;;;1.38;;
44572;SDS011;31762;45.420;10.072;2022-07-29T21:14:51;3.30;;;1.92;;
44572;SDS011;31762;45.420;10.072;2022-07-29T21:19:53;1.98;;;1.77;;
44572;SDS011;31762;45.420;10.072;2022-07-29T21:24:55;2.60;;;1.40;;
44572;SDS011;31762;45.420;10.072;2022-07-29T21:29:57;2.50;;;1.90;;
44572;SDS011;31762;45.420;10.072;2022-07-29T21:35:00;2.00;;;1.80;;
44572;SDS011;31762;45.420;10.072;2022-07-29T21:40:15;2.22;;;1.20;;
44572;SDS011;31762;45.420;10.072;2022-07-29T21:45:17;2.70;;;1.95;;
44572;SDS011;31762;45.420;10.072;2022-07-29T21:50:19;4.13;;;1.98;;
44572;SDS011;31762;45.420;10.072;2022-07-29T21:55:21;2.72;;;1.98;;
44572;SDS011;31762;45.420;10.072;2022-07-29T22:00:26;2.15;;;1.90;;
44572;SDS011;31762;45.420;10.072;2022-07-29T22:05:28;3.78;;;2.55;;
44572;SDS011;31762;45.420;10.072;2022-07-29T22:10:31;4.28;;;3.05;;
44572;SDS011;31762;45.420;10.072;2022-07-29T22:15:33;3.30;;;2.90;;
44572;SDS011;31762;45.420;10.072;2022-07-29T22:20:35;3.03;;;2.13;;
44572;SDS011;31762;45.420;10.072;2022-07-29T22:25:41;2.75;;;2.47;;
44572;SDS011;31762;45.420;10.072;2022-07-29T22:30:43;3.42;;;2.70;;
44572;SDS011;31762;45.420;10.072;2022-07-29T22:35:45;3.33;;;2.88;;
44572;SDS011;31762;45.420;10.072;2022-07-29T22:40:49;5.75;;;3.35;;
44572;SDS011;31762;45.420;10.072;2022-07-29T22:45:51;4.95;;;3.47;;
44572;SDS011;31762;45.420;10.072;2022-07-29T22:50:53;7.35;;;4.10;;
44572;SDS011;31762;45.420;10.072;2022-07-29T22:55:55;5.55;;;4.32;;
44572;SDS011;31762;45.420;10.072;2022-07-29T23:00:57;5.10;;;3.95;;
44572;SDS011;31762;45.420;10.072;2022-07-29T23:05:59;4.85;;;3.97;;
44572;SDS011;31762;45.420;10.072;2022-07-29T23:11:01;4.65;;;3.90;;
44572;SDS011;31762;45.420;10.072;2022-07-29T23:16:03;4.97;;;4.47;;
44572;SDS011;31762;45.420;10.072;2022-07-29T23:21:05;5.40;;;4.88;;
44572;SDS011;31762;45.420;10.072;2022-07-29T23:26:06;5.20;;;4.70;;
44572;SDS011;31762;45.420;10.072;2022-07-29T23:31:08;5.30;;;4.60;;
44572;SDS011;31762;45.420;10.072;2022-07-29T23:36:10;4.93;;;4.43;;
44572;SDS011;31762;45.420;10.072;2022-07-29T23:41:12;7.93;;;4.95;;
44572;SDS011;31762;45.420;10.072;2022-07-29T23:46:14;6.07;;;5.13;;
44572;SDS011;31762;45.420;10.072;2022-07-29T23:51:16;6.77;;;5.03;;
44572;SDS011;31762;45.420;10.072;2022-07-29T23:56:18;7.28;;;5.60;;
